Meadowlands, Minnesota
Current Conditions -  °F | °C
As of 9:31 AM on Thursday 23 Oct 2014 (Local Time) from KHIB Reporting Station
Haze Haze  
Wind Chill: 45°   Ceiling: 200
Heat Index: 49°   Visibility: 2.5mi
Dew Point: 47°   Wind: 8mph
Humidity: 93%   Direction: 220°SW
Pressure: 29.95"   Gusts: NA
Location:  47.07°N, 92.73°W
Report Text: KHIB 231431Z AUTO 22007KT 2 1/2SM BR OVC002 09/08 A2995 RMK AO2 T00940083
Loading
Personal Weather Stations






























Interactive Weather Map
Tropical Storm Tracking
New forecast layout! Learn more

10-Day Weather Forecast

Advertisements
Track Severe Weather on mobile